Time;durP1;ratioP1;P1;durP2;ratioP2;P2;SDS_P1;SDS_P2;PMS_P1;PMS_P2;Temp;Humidity;BMP_temperature;BMP_pressure;BME280_temperature;BME280_humidity;BME280_pressure;Samples;Min_cycle;Max_cycle;Signal;HPM_P1;HPM_P2
2023/08/19 00:02:16;;;;;;;8.40;3.30;;;;;;;;;;5023267;28;20043;-83
2023/08/19 00:04:41;;;;;;;4.65;2.88;;;;;;;;;;5027332;28;20037;-83
2023/08/19 00:07:07;;;;;;;5.72;2.90;;;;;;;;;;5034382;28;20033;-84
2023/08/19 00:09:36;;;;;;;4.38;2.97;;;;;;;;;;5029765;28;20021;-84
2023/08/19 00:12:02;;;;;;;6.53;2.80;;;;;;;;;;5010891;28;20032;-84
2023/08/19 00:14:28;;;;;;;7.18;3.63;;;;;;;;;;5023930;28;20037;-84
2023/08/19 00:16:53;;;;;;;6.43;2.90;;;;;;;;;;5022159;28;20477;-83
2023/08/19 00:19:19;;;;;;;6.22;3.10;;;;;;;;;;5024004;28;20080;-83
2023/08/19 00:21:44;;;;;;;5.22;3.20;;;;;;;;;;5030218;28;20061;-83
2023/08/19 00:24:10;;;;;;;5.43;3.08;;;;;;;;;;5025752;28;20525;-83
2023/08/19 00:26:35;;;;;;;5.63;3.10;;;;;;;;;;5027811;28;20142;-85
2023/08/19 00:29:01;;;;;;;4.35;3.10;;;;;;;;;;5024978;28;20026;-84
2023/08/19 00:31:27;;;;;;;4.05;3.03;;;;;;;;;;5021031;28;20107;-84
2023/08/19 00:33:52;;;;;;;5.30;2.65;;;;;;;;;;5034052;28;20041;-83
2023/08/19 00:36:18;;;;;;;4.93;2.90;;;;;;;;;;4996310;28;20546;-83
2023/08/19 00:38:45;;;;;;;4.63;3.00;;;;;;;;;;5008892;28;20061;-83
2023/08/19 00:41:11;;;;;;;4.85;2.80;;;;;;;;;;5015770;28;20101;-83
2023/08/19 00:43:37;;;;;;;5.18;3.03;;;;;;;;;;5011650;28;20076;-84
2023/08/19 00:46:06;;;;;;;4.00;3.13;;;;;;;;;;5007581;28;20025;-84
2023/08/19 00:48:31;;;;;;;4.35;2.80;;;;;;;;;;5013487;28;20124;-84
2023/08/19 00:50:58;;;;;;;5.13;2.70;;;;;;;;;;5014131;28;20119;-83
2023/08/19 00:53:24;;;;;;;5.50;2.97;;;;;;;;;;5023993;28;20433;-83
2023/08/19 00:55:50;;;;;;;5.30;2.67;;;;;;;;;;5003976;28;20051;-82
2023/08/19 00:58:16;;;;;;;4.57;3.03;;;;;;;;;;5019511;28;20034;-83
2023/08/19 01:00:41;;;;;;;4.05;2.90;;;;;;;;;;5022166;28;20125;-84
2023/08/19 01:03:07;;;;;;;6.53;3.25;;;;;;;;;;5019696;28;20040;-85
2023/08/19 01:05:57;;;;;;;5.53;3.30;;;;;;;;;;5032017;28;20044;-85
2023/08/19 01:08:29;;;;;;;5.72;3.22;;;;;;;;;;5027769;28;20033;-86
2023/08/19 01:11:14;;;;;;;5.05;2.83;;;;;;;;;;5007510;28;20030;-85
2023/08/19 01:13:52;;;;;;;5.03;3.03;;;;;;;;;;5012442;28;20041;-84
2023/08/19 01:16:24;;;;;;;4.15;2.78;;;;;;;;;;5019476;28;20044;-84
2023/08/19 01:18:52;;;;;;;6.45;2.92;;;;;;;;;;5012719;28;20029;-85
2023/08/19 01:21:17;;;;;;;6.10;2.85;;;;;;;;;;5009198;28;20033;-85
2023/08/19 01:23:47;;;;;;;6.53;3.25;;;;;;;;;;5015028;28;20088;-85
2023/08/19 01:26:17;;;;;;;5.95;2.92;;;;;;;;;;5016532;28;20087;-84
2023/08/19 01:28:42;;;;;;;4.72;3.13;;;;;;;;;;5002051;28;20040;-83
2023/08/19 01:31:08;;;;;;;4.68;2.92;;;;;;;;;;5020164;28;20041;-83
2023/08/19 01:33:34;;;;;;;8.50;3.40;;;;;;;;;;5019169;28;20032;-83
2023/08/19 01:36:32;;;;;;;4.47;3.05;;;;;;;;;;5008102;28;20048;-83
2023/08/19 01:39:01;;;;;;;4.40;3.00;;;;;;;;;;5001470;28;20041;-83
2023/08/19 01:41:28;;;;;;;4.03;2.88;;;;;;;;;;5023673;28;20030;-84
2023/08/19 01:43:56;;;;;;;4.85;2.92;;;;;;;;;;5018443;28;20076;-84
2023/08/19 01:46:22;;;;;;;4.35;2.97;;;;;;;;;;5008507;28;20061;-83
2023/08/19 01:48:47;;;;;;;4.05;3.25;;;;;;;;;;5019836;28;20033;-85
2023/08/19 01:51:13;;;;;;;5.70;3.15;;;;;;;;;;5023501;28;20041;-85
2023/08/19 01:53:38;;;;;;;5.60;3.20;;;;;;;;;;5009617;28;20080;-84
2023/08/19 01:56:04;;;;;;;6.90;3.10;;;;;;;;;;5025867;28;20038;-83
2023/08/19 01:58:29;;;;;;;4.97;2.92;;;;;;;;;;5010850;28;20393;-84
2023/08/19 02:00:55;;;;;;;7.25;3.25;;;;;;;;;;5013406;28;20021;-83
2023/08/19 02:03:21;;;;;;;5.82;3.10;;;;;;;;;;5013285;28;20511;-83
2023/08/19 02:05:48;;;;;;;5.03;3.05;;;;;;;;;;5012072;28;20026;-83
2023/08/19 02:08:14;;;;;;;7.25;3.20;;;;;;;;;;5012782;28;20041;-84
2023/08/19 02:10:42;;;;;;;8.57;3.20;;;;;;;;;;4989116;28;20030;-84
2023/08/19 02:13:08;;;;;;;5.45;3.15;;;;;;;;;;5002394;28;20455;-84
2023/08/19 02:15:33;;;;;;;4.55;3.03;;;;;;;;;;5000845;28;20041;-83
2023/08/19 02:17:59;;;;;;;7.47;3.30;;;;;;;;;;5018175;28;20079;-83
2023/08/19 02:20:24;;;;;;;4.70;2.97;;;;;;;;;;5024120;28;20061;-83
2023/08/19 02:22:50;;;;;;;5.90;3.20;;;;;;;;;;5020700;28;20033;-84
2023/08/19 02:25:16;;;;;;;5.47;3.20;;;;;;;;;;5013064;28;20041;-85
2023/08/19 02:27:43;;;;;;;6.40;3.05;;;;;;;;;;5023957;28;20034;-85
2023/08/19 02:30:10;;;;;;;5.22;3.40;;;;;;;;;;5018356;28;20542;-85
2023/08/19 02:32:38;;;;;;;5.88;3.20;;;;;;;;;;5004799;28;20064;-84
2023/08/19 02:35:03;;;;;;;4.68;3.38;;;;;;;;;;5010300;28;20037;-84
2023/08/19 02:37:29;;;;;;;6.55;3.60;;;;;;;;;;5014518;28;20044;-84
2023/08/19 02:39:55;;;;;;;5.55;3.28;;;;;;;;;;5013469;28;20062;-84
2023/08/19 02:42:20;;;;;;;5.72;3.20;;;;;;;;;;5021365;28;20029;-84
2023/08/19 02:44:45;;;;;;;8.02;3.40;;;;;;;;;;5009151;28;20045;-86
2023/08/19 02:47:11;;;;;;;6.63;3.30;;;;;;;;;;5005996;28;20046;-85
2023/08/19 02:49:37;;;;;;;5.60;3.30;;;;;;;;;;5010836;28;20029;-85
2023/08/19 02:52:03;;;;;;;5.03;3.13;;;;;;;;;;5017766;28;20131;-84
2023/08/19 02:54:29;;;;;;;7.03;3.38;;;;;;;;;;5026136;28;20503;-84
2023/08/19 02:56:54;;;;;;;5.55;3.20;;;;;;;;;;5022182;28;20030;-84
2023/08/19 02:59:20;;;;;;;5.80;3.08;;;;;;;;;;5019226;28;20037;-84
2023/08/19 03:01:45;;;;;;;5.43;3.03;;;;;;;;;;5006933;28;20037;-85
2023/08/19 03:04:11;;;;;;;3.97;3.08;;;;;;;;;;5009323;28;20041;-85
2023/08/19 03:06:36;;;;;;;5.45;3.00;;;;;;;;;;5001073;28;20140;-85
2023/08/19 03:09:01;;;;;;;10.18;3.20;;;;;;;;;;5019268;28;20068;-84
2023/08/19 03:11:27;;;;;;;7.32;3.40;;;;;;;;;;5015434;28;20160;-85
2023/08/19 03:13:54;;;;;;;6.45;3.20;;;;;;;;;;5009528;28;20089;-84
2023/08/19 03:16:19;;;;;;;5.15;3.15;;;;;;;;;;5027025;28;20038;-84
2023/08/19 03:18:45;;;;;;;5.93;3.10;;;;;;;;;;5014376;28;20024;-85
2023/08/19 03:21:10;;;;;;;6.15;3.40;;;;;;;;;;4986800;28;20041;-85
2023/08/19 03:23:36;;;;;;;6.03;3.03;;;;;;;;;;5018790;28;20091;-85
2023/08/19 03:26:02;;;;;;;6.70;3.20;;;;;;;;;;5020961;28;20061;-84
2023/08/19 03:28:28;;;;;;;6.90;3.40;;;;;;;;;;5015163;28;20033;-84
2023/08/19 03:30:53;;;;;;;4.82;3.17;;;;;;;;;;5020821;28;20514;-85
2023/08/19 03:33:20;;;;;;;9.25;3.22;;;;;;;;;;5011046;28;20127;-84
2023/08/19 03:35:46;;;;;;;6.18;3.33;;;;;;;;;;5009885;28;20037;-84
2023/08/19 03:38:13;;;;;;;5.15;3.10;;;;;;;;;;5014087;28;20109;-85
2023/08/19 03:40:39;;;;;;;10.20;3.47;;;;;;;;;;5031887;28;20042;-84
2023/08/19 03:43:08;;;;;;;8.82;3.22;;;;;;;;;;5011565;28;20026;-84
2023/08/19 03:45:34;;;;;;;5.68;3.50;;;;;;;;;;5022736;28;20030;-83
2023/08/19 03:47:59;;;;;;;6.90;3.28;;;;;;;;;;5021166;28;20052;-83
2023/08/19 03:50:25;;;;;;;8.95;3.42;;;;;;;;;;5029086;28;20109;-83
2023/08/19 03:52:50;;;;;;;9.00;3.42;;;;;;;;;;5030710;28;20029;-83
2023/08/19 03:55:16;;;;;;;7.22;3.10;;;;;;;;;;5023794;28;20033;-84
2023/08/19 03:57:41;;;;;;;7.00;3.35;;;;;;;;;;5020598;28;20041;-84
2023/08/19 04:00:09;;;;;;;5.07;3.33;;;;;;;;;;5014401;28;20557;-85
2023/08/19 04:02:40;;;;;;;3.80;2.90;;;;;;;;;;5027475;28;20109;-85
2023/08/19 04:05:10;;;;;;;6.65;3.45;;;;;;;;;;5014255;28;20052;-83
2023/08/19 04:07:35;;;;;;;6.88;3.40;;;;;;;;;;5022734;28;20037;-83
2023/08/19 04:10:03;;;;;;;5.93;3.05;;;;;;;;;;5023043;28;20025;-83
2023/08/19 04:12:29;;;;;;;4.15;2.95;;;;;;;;;;5012071;28;20393;-83
2023/08/19 04:14:54;;;;;;;7.03;3.10;;;;;;;;;;5028288;28;20511;-83
2023/08/19 04:17:21;;;;;;;5.68;3.35;;;;;;;;;;5020866;28;20032;-84
2023/08/19 04:19:46;;;;;;;7.70;3.28;;;;;;;;;;5016627;28;20030;-85
2023/08/19 04:22:13;;;;;;;4.43;3.33;;;;;;;;;;4992432;28;20081;-84
2023/08/19 04:24:38;;;;;;;7.10;3.08;;;;;;;;;;5018277;28;20037;-83
2023/08/19 04:27:04;;;;;;;5.30;3.30;;;;;;;;;;5026077;28;20113;-83
2023/08/19 04:29:32;;;;;;;7.05;3.30;;;;;;;;;;5023628;28;20109;-83
2023/08/19 04:32:02;;;;;;;7.90;3.55;;;;;;;;;;5007572;28;20042;-83
2023/08/19 04:34:30;;;;;;;5.63;3.60;;;;;;;;;;5008185;28;20056;-83
2023/08/19 04:36:57;;;;;;;6.90;3.30;;;;;;;;;;5015852;28;20032;-84
2023/08/19 04:39:23;;;;;;;6.18;3.05;;;;;;;;;;5019601;28;20044;-85
2023/08/19 04:41:51;;;;;;;12.40;3.60;;;;;;;;;;5019227;28;20037;-84
2023/08/19 04:44:20;;;;;;;5.97;3.40;;;;;;;;;;5005397;28;20747;-84
2023/08/19 04:46:45;;;;;;;9.27;3.55;;;;;;;;;;5018762;28;20132;-83
2023/08/19 04:49:11;;;;;;;6.47;3.30;;;;;;;;;;4994094;28;20050;-84
2023/08/19 04:51:37;;;;;;;7.47;3.08;;;;;;;;;;5014198;28;20068;-84
2023/08/19 04:54:03;;;;;;;7.07;3.28;;;;;;;;;;5007701;28;20037;-83
2023/08/19 04:56:29;;;;;;;9.80;3.35;;;;;;;;;;4997013;28;20029;-84
2023/08/19 04:58:55;;;;;;;10.18;3.45;;;;;;;;;;5010878;28;20105;-86
2023/08/19 05:01:21;;;;;;;7.45;3.20;;;;;;;;;;5011242;28;20110;-85
2023/08/19 05:03:47;;;;;;;6.47;3.53;;;;;;;;;;5010381;28;20071;-83
2023/08/19 05:06:13;;;;;;;7.05;3.17;;;;;;;;;;5010439;28;20109;-83
2023/08/19 05:08:41;;;;;;;6.32;3.42;;;;;;;;;;5006258;28;20025;-83
2023/08/19 05:11:06;;;;;;;8.65;3.25;;;;;;;;;;5009470;28;20055;-84
2023/08/19 05:13:32;;;;;;;7.38;3.42;;;;;;;;;;5001371;28;20034;-84
2023/08/19 05:15:59;;;;;;;8.63;3.70;;;;;;;;;;5017622;28;20059;-85
2023/08/19 05:18:25;;;;;;;6.75;3.80;;;;;;;;;;5019049;28;20076;-85
2023/08/19 05:20:51;;;;;;;5.97;3.50;;;;;;;;;;5013778;28;20025;-84
2023/08/19 05:23:16;;;;;;;6.47;3.40;;;;;;;;;;5015795;28;20077;-84
2023/08/19 05:25:43;;;;;;;5.95;3.38;;;;;;;;;;5027390;28;20045;-84
2023/08/19 05:28:10;;;;;;;5.45;3.20;;;;;;;;;;5021056;28;20515;-83
2023/08/19 05:30:35;;;;;;;7.88;3.22;;;;;;;;;;5017129;28;20101;-83
2023/08/19 05:33:01;;;;;;;9.02;3.28;;;;;;;;;;5032357;28;20042;-85
2023/08/19 05:35:26;;;;;;;5.78;3.00;;;;;;;;;;5024742;28;20053;-85
2023/08/19 05:37:51;;;;;;;7.15;3.10;;;;;;;;;;5028955;28;20065;-85
2023/08/19 05:40:17;;;;;;;6.70;3.10;;;;;;;;;;5012532;28;20087;-84
2023/08/19 05:42:42;;;;;;;5.05;3.05;;;;;;;;;;5018798;28;20045;-83
2023/08/19 05:45:08;;;;;;;5.72;3.17;;;;;;;;;;5021955;28;20393;-84
2023/08/19 05:47:34;;;;;;;7.13;3.30;;;;;;;;;;5021328;28;20042;-83
2023/08/19 05:49:59;;;;;;;9.75;3.53;;;;;;;;;;5021405;28;20461;-85
2023/08/19 05:52:25;;;;;;;8.07;3.47;;;;;;;;;;5019119;28;20037;-85
2023/08/19 05:54:50;;;;;;;9.10;2.90;;;;;;;;;;5011647;28;20060;-85
2023/08/19 05:57:16;;;;;;;4.32;3.00;;;;;;;;;;5020961;28;20553;-84
2023/08/19 05:59:41;;;;;;;9.60;3.40;;;;;;;;;;5020452;28;20036;-84
2023/08/19 06:02:07;;;;;;;4.38;3.00;;;;;;;;;;5023153;28;20065;-84
2023/08/19 06:04:32;;;;;;;8.25;3.40;;;;;;;;;;5021225;28;20065;-84
2023/08/19 06:06:58;;;;;;;8.02;3.15;;;;;;;;;;5019268;28;20057;-84
2023/08/19 06:09:23;;;;;;;5.45;2.90;;;;;;;;;;5024038;28;20036;-85
2023/08/19 06:11:51;;;;;;;9.70;3.05;;;;;;;;;;5016518;28;20519;-85
2023/08/19 06:14:17;;;;;;;5.88;2.90;;;;;;;;;;5022629;28;20037;-85
2023/08/19 06:16:44;;;;;;;5.60;3.13;;;;;;;;;;5020005;28;20030;-84
2023/08/19 06:19:10;;;;;;;5.05;2.90;;;;;;;;;;4998157;28;20030;-84
2023/08/19 06:21:36;;;;;;;4.85;2.85;;;;;;;;;;5029964;28;20112;-84
2023/08/19 06:24:01;;;;;;;8.18;3.17;;;;;;;;;;5025722;28;20048;-84
2023/08/19 06:26:27;;;;;;;5.70;2.72;;;;;;;;;;5023002;28;20029;-85
2023/08/19 06:28:52;;;;;;;6.38;3.05;;;;;;;;;;5001902;28;20025;-85
2023/08/19 06:31:19;;;;;;;5.15;3.20;;;;;;;;;;5032493;28;20021;-85
2023/08/19 06:33:44;;;;;;;7.95;3.30;;;;;;;;;;5026104;28;20072;-85
2023/08/19 06:36:12;;;;;;;8.70;3.33;;;;;;;;;;5022653;28;20033;-84
2023/08/19 06:38:41;;;;;;;5.10;2.70;;;;;;;;;;5021437;28;20152;-84
2023/08/19 06:41:11;;;;;;;4.60;3.05;;;;;;;;;;5021384;28;20093;-84
2023/08/19 06:43:40;;;;;;;6.18;2.60;;;;;;;;;;5003530;28;20058;-84
2023/08/19 06:46:07;;;;;;;6.72;3.08;;;;;;;;;;5009241;28;20045;-84
2023/08/19 06:48:34;;;;;;;5.63;3.17;;;;;;;;;;5019020;28;20025;-85
2023/08/19 06:51:02;;;;;;;4.78;3.00;;;;;;;;;;5004697;28;20489;-86
2023/08/19 06:53:27;;;;;;;7.07;2.90;;;;;;;;;;5018520;28;20041;-86
2023/08/19 06:56:14;;;;;;;5.53;2.67;;;;;;;;;;5022361;28;20057;-85
2023/08/19 06:59:03;;;;;;;5.88;2.85;;;;;;;;;;5012988;28;20092;-86
2023/08/19 07:01:30;;;;;;;6.43;2.95;;;;;;;;;;4998690;28;20045;-85
2023/08/19 07:03:56;;;;;;;6.13;2.85;;;;;;;;;;5004161;28;20041;-86
2023/08/19 07:06:22;;;;;;;5.70;3.10;;;;;;;;;;5023576;28;20029;-85
2023/08/19 07:08:49;;;;;;;9.07;2.70;;;;;;;;;;5029242;28;20599;-85
2023/08/19 07:11:15;;;;;;;5.97;3.00;;;;;;;;;;5020889;28;20026;-85
2023/08/19 07:13:42;;;;;;;6.55;2.90;;;;;;;;;;4994077;28;20041;-85
2023/08/19 07:16:10;;;;;;;6.90;3.05;;;;;;;;;;5027393;28;20041;-85
2023/08/19 07:18:43;;;;;;;7.05;2.88;;;;;;;;;;5028092;28;20033;-86
2023/08/19 07:21:10;;;;;;;;;;;;;;;;;;5032626;28;20033;-84
2023/08/19 07:23:39;;;;;;;7.70;3.33;;;;;;;;;;5020518;28;20387;-86
2023/08/19 07:26:04;;;;;;;5.40;2.70;;;;;;;;;;5026519;28;20484;-86
2023/08/19 07:28:31;;;;;;;6.72;2.78;;;;;;;;;;5010071;28;20052;-85
2023/08/19 07:30:58;;;;;;;7.35;3.00;;;;;;;;;;5034758;28;20041;-85
2023/08/19 07:33:24;;;;;;;5.28;2.50;;;;;;;;;;5032288;28;20044;-86
2023/08/19 07:35:49;;;;;;;5.95;2.65;;;;;;;;;;5026462;28;20116;-85
2023/08/19 07:38:15;;;;;;;7.07;2.85;;;;;;;;;;5024842;28;20041;-87
2023/08/19 07:40:41;;;;;;;6.97;2.60;;;;;;;;;;5005654;28;20093;-86
2023/08/19 07:43:06;;;;;;;7.57;2.90;;;;;;;;;;5025689;28;20091;-86
2023/08/19 07:45:31;;;;;;;7.60;2.58;;;;;;;;;;5029250;28;20508;-86
2023/08/19 07:47:57;;;;;;;6.28;2.53;;;;;;;;;;5031295;28;20129;-87
2023/08/19 07:50:23;;;;;;;6.55;2.78;;;;;;;;;;5020661;28;20029;-85
2023/08/19 07:52:49;;;;;;;5.97;2.60;;;;;;;;;;5019034;28;20564;-86
2023/08/19 07:55:14;;;;;;;5.32;2.58;;;;;;;;;;5024023;28;20112;-85
2023/08/19 07:57:39;;;;;;;4.97;2.83;;;;;;;;;;5026583;28;20033;-85
2023/08/19 08:00:06;;;;;;;4.05;2.50;;;;;;;;;;5020316;28;20137;-86
2023/08/19 08:02:38;;;;;;;4.50;2.70;;;;;;;;;;5019384;28;20109;-85
2023/08/19 08:05:03;;;;;;;6.03;2.67;;;;;;;;;;5022599;28;20249;-86
2023/08/19 08:07:29;;;;;;;5.03;2.58;;;;;;;;;;4999232;28;20107;-86
2023/08/19 08:09:55;;;;;;;4.90;2.60;;;;;;;;;;5024216;28;20025;-85
2023/08/19 08:12:20;;;;;;;5.82;2.55;;;;;;;;;;5023376;28;20025;-86
2023/08/19 08:14:46;;;;;;;4.35;2.70;;;;;;;;;;5020619;28;20038;-85
2023/08/19 08:17:11;;;;;;;3.80;2.50;;;;;;;;;;5019788;28;20157;-85
2023/08/19 08:19:38;;;;;;;6.25;2.53;;;;;;;;;;5013699;28;20040;-85
2023/08/19 08:22:04;;;;;;;5.68;3.17;;;;;;;;;;5021300;28;20034;-85
2023/08/19 08:24:30;;;;;;;4.28;2.88;;;;;;;;;;5017234;28;20413;-85
2023/08/19 08:26:55;;;;;;;4.57;2.60;;;;;;;;;;5021850;28;20033;-85
2023/08/19 08:29:21;;;;;;;7.72;2.83;;;;;;;;;;5028357;28;20040;-85
2023/08/19 08:31:46;;;;;;;5.70;2.83;;;;;;;;;;5024786;28;20117;-85
2023/08/19 08:34:12;;;;;;;7.95;2.88;;;;;;;;;;5019846;28;20056;-85
2023/08/19 08:36:37;;;;;;;6.68;2.80;;;;;;;;;;5017143;28;20026;-85
2023/08/19 08:39:03;;;;;;;5.32;2.70;;;;;;;;;;5016374;28;20481;-85
2023/08/19 08:41:29;;;;;;;5.15;2.50;;;;;;;;;;5019256;28;20041;-85
2023/08/19 08:43:55;;;;;;;4.63;2.40;;;;;;;;;;5022238;28;20099;-85
2023/08/19 08:46:23;;;;;;;4.78;2.67;;;;;;;;;;5031069;28;20033;-85
2023/08/19 08:48:49;;;;;;;7.03;2.80;;;;;;;;;;5017413;28;20029;-86
2023/08/19 08:51:16;;;;;;;6.07;2.50;;;;;;;;;;5018381;28;20041;-85
2023/08/19 08:53:41;;;;;;;5.72;2.90;;;;;;;;;;5008704;28;20072;-86
2023/08/19 08:56:07;;;;;;;3.95;2.40;;;;;;;;;;5016175;28;20056;-85
2023/08/19 08:58:33;;;;;;;5.25;2.60;;;;;;;;;;5018185;28;20065;-85
2023/08/19 09:01:01;;;;;;;7.60;2.80;;;;;;;;;;5014930;28;20038;-86
2023/08/19 09:03:30;;;;;;;8.25;3.00;;;;;;;;;;5021051;28;20030;-85
2023/08/19 09:06:00;;;;;;;5.68;2.67;;;;;;;;;;5021077;28;20120;-85
2023/08/19 09:08:33;;;;;;;6.75;2.60;;;;;;;;;;5020363;28;20034;-85
2023/08/19 09:11:02;;;;;;;8.65;2.90;;;;;;;;;;5017034;28;20080;-85
2023/08/19 09:13:29;;;;;;;6.63;2.58;;;;;;;;;;5017954;28;20037;-85
2023/08/19 09:15:55;;;;;;;5.30;2.65;;;;;;;;;;5019379;28;20151;-85
2023/08/19 09:18:21;;;;;;;8.98;2.40;;;;;;;;;;5023279;28;20120;-85
2023/08/19 09:20:47;;;;;;;5.80;2.70;;;;;;;;;;5019874;28;20026;-85
2023/08/19 09:23:12;;;;;;;7.22;2.75;;;;;;;;;;5015893;28;20038;-84
2023/08/19 09:25:39;;;;;;;7.55;2.70;;;;;;;;;;5017314;28;20061;-84
2023/08/19 09:28:05;;;;;;;4.78;2.47;;;;;;;;;;5028624;28;20034;-85
2023/08/19 09:30:33;;;;;;;6.07;2.63;;;;;;;;;;5023907;28;20037;-85
2023/08/19 09:33:01;;;;;;;4.82;2.38;;;;;;;;;;5019322;28;20041;-85
2023/08/19 09:35:37;;;;;;;7.05;3.15;;;;;;;;;;5018869;28;20479;-85
2023/08/19 09:38:03;;;;;;;5.32;2.45;;;;;;;;;;5027234;28;20048;-87
2023/08/19 09:40:29;;;;;;;4.45;2.47;;;;;;;;;;5023766;28;20046;-85
2023/08/19 09:42:59;;;;;;;5.15;2.40;;;;;;;;;;5019583;28;20037;-85
2023/08/19 09:45:26;;;;;;;5.10;2.40;;;;;;;;;;5003561;28;20645;-85
2023/08/19 09:47:53;;;;;;;6.45;2.40;;;;;;;;;;5015547;28;20473;-85
2023/08/19 09:50:23;;;;;;;6.63;2.80;;;;;;;;;;5017341;28;20029;-85
2023/08/19 09:52:54;;;;;;;5.05;2.60;;;;;;;;;;5009301;28;20040;-85
2023/08/19 09:55:24;;;;;;;3.10;2.10;;;;;;;;;;5016191;28;20053;-84
2023/08/19 09:57:50;;;;;;;5.47;2.55;;;;;;;;;;5004150;28;20037;-85
2023/08/19 10:00:15;;;;;;;4.60;2.42;;;;;;;;;;5016686;28;20014;-85
2023/08/19 10:02:41;;;;;;;5.63;2.60;;;;;;;;;;5019565;28;20033;-85
2023/08/19 10:05:07;;;;;;;5.38;2.60;;;;;;;;;;5025450;28;20076;-86
2023/08/19 10:07:33;;;;;;;5.32;2.40;;;;;;;;;;5021748;28;20061;-85
2023/08/19 10:10:04;;;;;;;5.90;2.63;;;;;;;;;;5019759;28;20438;-86
2023/08/19 10:12:38;;;;;;;4.65;2.65;;;;;;;;;;5019485;28;20042;-85
2023/08/19 10:15:04;;;;;;;8.13;2.90;;;;;;;;;;5025171;28;20056;-85
2023/08/19 10:17:32;;;;;;;5.60;2.60;;;;;;;;;;5024476;28;20044;-84
2023/08/19 10:20:05;;;;;;;5.72;2.50;;;;;;;;;;5023016;28;20046;-85
2023/08/19 10:22:33;;;;;;;5.22;2.58;;;;;;;;;;5017575;28;20041;-86
2023/08/19 10:25:00;;;;;;;4.30;2.55;;;;;;;;;;5013917;28;20040;-85
2023/08/19 10:27:26;;;;;;;5.68;2.42;;;;;;;;;;5030210;28;20076;-85
2023/08/19 10:29:58;;;;;;;7.07;2.80;;;;;;;;;;5015210;28;20030;-86
2023/08/19 10:32:31;;;;;;;7.97;2.60;;;;;;;;;;5021687;28;20393;-86
2023/08/19 10:35:09;;;;;;;6.07;2.67;;;;;;;;;;5018007;28;20080;-84
2023/08/19 10:37:39;;;;;;;5.95;3.03;;;;;;;;;;5028540;28;20075;-85
2023/08/19 10:40:20;;;;;;;6.55;3.00;;;;;;;;;;5029555;28;20073;-85
2023/08/19 10:43:01;;;;;;;8.27;2.65;;;;;;;;;;5021784;28;20046;-85
2023/08/19 10:45:31;;;;;;;6.38;2.70;;;;;;;;;;5006074;28;20083;-85
2023/08/19 10:47:57;;;;;;;6.75;2.95;;;;;;;;;;5007002;28;20068;-85
2023/08/19 10:50:25;;;;;;;8.02;2.92;;;;;;;;;;5026024;28;20022;-85
2023/08/19 10:52:57;;;;;;;5.72;2.70;;;;;;;;;;5016118;28;20037;-85
2023/08/19 10:55:23;;;;;;;3.65;2.65;;;;;;;;;;5025905;28;20037;-85
2023/08/19 10:57:48;;;;;;;5.38;3.20;;;;;;;;;;5020059;28;20040;-85
2023/08/19 11:00:14;;;;;;;5.05;2.72;;;;;;;;;;5021738;28;20021;-87
2023/08/19 11:02:40;;;;;;;4.47;3.00;;;;;;;;;;5024835;28;20045;-87
2023/08/19 11:05:06;;;;;;;5.10;2.90;;;;;;;;;;5002805;28;20064;-86
2023/08/19 11:07:33;;;;;;;5.97;3.10;;;;;;;;;;5023266;28;20022;-84
2023/08/19 11:09:59;;;;;;;7.70;3.15;;;;;;;;;;5019817;28;20496;-85
2023/08/19 11:12:29;;;;;;;6.88;3.03;;;;;;;;;;5022545;28;20045;-85
2023/08/19 11:14:55;;;;;;;6.50;2.90;;;;;;;;;;5029325;28;20044;-85
2023/08/19 11:17:31;;;;;;;5.78;2.83;;;;;;;;;;5019053;28;20038;-85
2023/08/19 11:20:00;;;;;;;5.15;3.03;;;;;;;;;;5022548;28;20030;-85
2023/08/19 11:22:25;;;;;;;5.07;2.75;;;;;;;;;;5019567;28;20034;-86
2023/08/19 11:24:51;;;;;;;5.82;2.88;;;;;;;;;;5027360;28;20064;-86
2023/08/19 11:27:17;;;;;;;4.97;2.88;;;;;;;;;;5027763;28;20049;-87
2023/08/19 11:29:48;;;;;;;6.18;3.00;;;;;;;;;;5014662;28;20024;-85
2023/08/19 11:32:19;;;;;;;6.15;2.88;;;;;;;;;;5004628;28;20045;-85
2023/08/19 11:34:44;;;;;;;7.90;2.80;;;;;;;;;;5018691;28;20028;-86
2023/08/19 11:37:10;;;;;;;6.25;2.85;;;;;;;;;;5031276;28;20112;-85
2023/08/19 11:39:35;;;;;;;5.18;2.83;;;;;;;;;;5009411;28;20116;-85
2023/08/19 11:42:02;;;;;;;6.13;2.97;;;;;;;;;;5033498;28;20029;-86
2023/08/19 11:44:27;;;;;;;7.30;2.65;;;;;;;;;;5022118;28;20057;-86
2023/08/19 11:46:57;;;;;;;6.30;2.92;;;;;;;;;;5032856;28;20044;-86
2023/08/19 11:49:24;;;;;;;7.15;2.95;;;;;;;;;;5021429;28;20033;-86
2023/08/19 11:51:50;;;;;;;8.50;3.00;;;;;;;;;;5032655;28;20040;-85
2023/08/19 11:54:16;;;;;;;8.27;2.88;;;;;;;;;;5031423;28;20017;-85
2023/08/19 11:56:45;;;;;;;5.90;2.88;;;;;;;;;;5009355;28;20037;-85
2023/08/19 11:59:11;;;;;;;5.13;2.60;;;;;;;;;;5025882;28;20026;-86
2023/08/19 12:01:36;;;;;;;4.80;2.70;;;;;;;;;;5029665;28;20652;-86
2023/08/19 12:04:09;;;;;;;7.00;2.67;;;;;;;;;;5029395;28;20017;-86
2023/08/19 12:06:35;;;;;;;;;;;;;;;;;;5024549;28;20044;-86
2023/08/19 12:09:00;;;;;;;7.03;2.70;;;;;;;;;;5021847;28;20007;-86
2023/08/19 12:11:25;;;;;;;6.68;2.60;;;;;;;;;;5025309;28;20033;-85
2023/08/19 12:13:52;;;;;;;5.15;2.60;;;;;;;;;;5031628;28;20061;-85
2023/08/19 12:16:18;;;;;;;6.22;2.78;;;;;;;;;;5014561;28;20037;-85
2023/08/19 12:18:44;;;;;;;4.82;2.70;;;;;;;;;;5024387;28;20025;-85
2023/08/19 12:21:10;;;;;;;6.03;2.72;;;;;;;;;;5027523;28;20037;-86
2023/08/19 12:23:35;;;;;;;6.13;2.53;;;;;;;;;;5015932;28;20056;-86
2023/08/19 12:26:01;;;;;;;4.22;2.45;;;;;;;;;;5033183;28;20473;-86
2023/08/19 12:28:28;;;;;;;5.53;2.40;;;;;;;;;;5031413;28;20398;-86
2023/08/19 12:30:54;;;;;;;6.53;2.33;;;;;;;;;;5028159;28;20044;-86
2023/08/19 12:33:20;;;;;;;4.68;2.50;;;;;;;;;;5034263;28;20022;-85
2023/08/19 12:35:48;;;;;;;5.43;2.53;;;;;;;;;;5023416;28;20037;-86
2023/08/19 12:38:15;;;;;;;8.15;2.78;;;;;;;;;;5035586;28;20025;-86
2023/08/19 12:40:44;;;;;;;4.30;2.67;;;;;;;;;;5026906;28;20044;-86
2023/08/19 12:43:12;;;;;;;6.43;2.40;;;;;;;;;;5025053;28;20038;-86
2023/08/19 12:45:38;;;;;;;4.72;2.28;;;;;;;;;;5010020;28;20099;-87
2023/08/19 12:48:04;;;;;;;7.60;2.53;;;;;;;;;;5027830;28;20121;-86
2023/08/19 12:50:30;;;;;;;5.07;2.60;;;;;;;;;;5025761;28;20021;-85
2023/08/19 12:52:55;;;;;;;8.10;2.47;;;;;;;;;;5025006;28;20504;-85
2023/08/19 12:55:27;;;;;;;5.35;2.45;;;;;;;;;;5021674;28;20036;-85
2023/08/19 12:57:56;;;;;;;5.15;2.50;;;;;;;;;;5025999;28;20080;-85
2023/08/19 13:00:27;;;;;;;8.02;2.50;;;;;;;;;;5026094;28;20045;-85
2023/08/19 13:02:53;;;;;;;4.63;2.35;;;;;;;;;;5026535;28;20051;-86
2023/08/19 13:05:19;;;;;;;6.90;2.47;;;;;;;;;;5009488;28;20025;-87
2023/08/19 13:07:45;;;;;;;5.95;2.53;;;;;;;;;;5013642;28;20030;-87
2023/08/19 13:10:11;;;;;;;5.88;2.20;;;;;;;;;;5021787;28;20037;-85
2023/08/19 13:12:38;;;;;;;6.30;2.30;;;;;;;;;;5026113;28;20071;-85
2023/08/19 13:15:04;;;;;;;4.97;2.20;;;;;;;;;;5024117;28;20541;-84
2023/08/19 13:17:30;;;;;;;4.35;2.15;;;;;;;;;;5015702;28;20036;-84
2023/08/19 13:19:55;;;;;;;5.32;2.42;;;;;;;;;;5007484;28;20038;-84
2023/08/19 13:22:22;;;;;;;6.57;2.33;;;;;;;;;;5022448;28;20033;-86
2023/08/19 13:24:49;;;;;;;7.40;2.53;;;;;;;;;;5024563;28;20552;-87
2023/08/19 13:27:17;;;;;;;5.70;2.30;;;;;;;;;;5020555;28;20036;-88
2023/08/19 13:29:44;;;;;;;5.25;2.50;;;;;;;;;;5026956;28;20029;-84
2023/08/19 13:32:10;;;;;;;7.65;2.30;;;;;;;;;;5023801;28;20092;-85
2023/08/19 13:34:36;;;;;;;6.53;2.33;;;;;;;;;;5018687;28;20093;-85
2023/08/19 13:37:03;;;;;;;4.75;2.20;;;;;;;;;;5031086;28;20476;-84
2023/08/19 13:39:29;;;;;;;5.18;2.28;;;;;;;;;;5026254;28;20041;-84
2023/08/19 13:41:55;;;;;;;5.53;2.30;;;;;;;;;;5028982;28;20088;-87
2023/08/19 13:44:24;;;;;;;4.32;2.15;;;;;;;;;;5029443;28;20045;-87
2023/08/19 13:46:50;;;;;;;7.00;2.03;;;;;;;;;;5009584;28;20528;-86
2023/08/19 13:49:16;;;;;;;5.50;2.38;;;;;;;;;;5024344;28;20100;-84
2023/08/19 13:51:42;;;;;;;5.65;2.10;;;;;;;;;;5013363;28;20491;-84
2023/08/19 13:54:07;;;;;;;6.50;2.38;;;;;;;;;;5015338;28;20602;-84
2023/08/19 13:56:33;;;;;;;4.95;2.40;;;;;;;;;;5029213;28;20511;-85
2023/08/19 13:58:58;;;;;;;11.15;2.55;;;;;;;;;;5010931;28;20391;-87
2023/08/19 14:01:23;;;;;;;7.35;2.30;;;;;;;;;;5030650;28;20045;-86
2023/08/19 14:03:49;;;;;;;5.40;2.15;;;;;;;;;;5016360;28;20037;-85
2023/08/19 14:06:14;;;;;;;5.43;2.28;;;;;;;;;;5024180;28;20034;-86
2023/08/19 14:08:40;;;;;;;8.88;2.20;;;;;;;;;;5022237;28;20032;-84
2023/08/19 14:11:10;;;;;;;7.15;2.65;;;;;;;;;;5003875;28;20116;-84
2023/08/19 14:13:36;;;;;;;7.72;2.50;;;;;;;;;;5025698;28;20085;-85
2023/08/19 14:16:01;;;;;;;7.40;2.17;;;;;;;;;;5026233;28;20516;-84
2023/08/19 14:18:27;;;;;;;8.35;2.10;;;;;;;;;;5025429;28;20396;-86
2023/08/19 14:20:52;;;;;;;4.75;2.22;;;;;;;;;;5020542;28;20036;-87
2023/08/19 14:23:17;;;;;;;4.65;2.08;;;;;;;;;;5025466;28;20038;-87
2023/08/19 14:25:43;;;;;;;5.72;2.30;;;;;;;;;;5022549;28;20144;-84
2023/08/19 14:28:09;;;;;;;8.13;2.20;;;;;;;;;;5029369;28;20037;-84
2023/08/19 14:30:35;;;;;;;6.55;2.30;;;;;;;;;;5017634;28;20034;-84
2023/08/19 14:33:03;;;;;;;6.18;2.55;;;;;;;;;;5010864;28;20045;-84
2023/08/19 14:35:28;;;;;;;7.55;2.47;;;;;;;;;;5003204;28;20049;-84
2023/08/19 14:37:54;;;;;;;5.85;2.33;;;;;;;;;;5020721;28;20033;-87
2023/08/19 14:40:23;;;;;;;6.00;2.28;;;;;;;;;;5015791;28;20131;-87
2023/08/19 14:42:49;;;;;;;5.05;2.40;;;;;;;;;;5020912;28;20036;-86